createdAt,value
2017-02-07T00:00:45.564Z,0
2017-02-07T00:01:50.717Z,0
2017-02-07T00:02:53.895Z,0
2017-02-07T00:03:59.024Z,0
2017-02-07T00:05:04.144Z,0
2017-02-07T00:06:10.251Z,0
2017-02-07T00:07:14.391Z,0
2017-02-07T00:08:19.516Z,0
2017-02-07T00:09:25.634Z,0
2017-02-07T00:10:29.900Z,0
2017-02-07T00:11:35.995Z,0
2017-02-07T00:12:41.132Z,0
2017-02-07T00:13:47.225Z,0
2017-02-07T00:14:51.379Z,0
2017-02-07T00:15:54.550Z,0
2017-02-07T00:16:59.662Z,0
2017-02-07T00:18:04.788Z,0
2017-02-07T00:19:10.907Z,0
2017-02-07T00:20:17.006Z,0
2017-02-07T00:21:22.143Z,0
2017-02-07T00:22:28.229Z,0
2017-02-07T00:23:33.364Z,0
2017-02-07T00:24:39.474Z,0
2017-02-07T00:25:45.544Z,0
2017-02-07T00:26:51.634Z,0
2017-02-07T00:27:57.730Z,0
2017-02-07T00:29:03.834Z,0
2017-02-07T00:30:07.989Z,0
2017-02-07T00:31:13.114Z,0
2017-02-07T00:32:17.267Z,0
2017-02-07T00:33:21.419Z,0
2017-02-07T00:34:26.522Z,0
2017-02-07T00:35:31.629Z,0
2017-02-07T00:36:37.727Z,0
2017-02-07T00:37:42.852Z,0
2017-02-07T00:38:47.002Z,0
2017-02-07T00:39:53.092Z,0
2017-02-07T00:40:56.342Z,0
2017-02-07T00:42:02.431Z,0
2017-02-07T00:43:08.531Z,0
2017-02-07T00:44:14.624Z,0
2017-02-07T00:45:19.750Z,0
2017-02-07T00:46:25.848Z,0
2017-02-07T00:47:30.989Z,0
2017-02-07T00:48:35.140Z,0
2017-02-07T00:49:39.301Z,0
2017-02-07T00:50:44.419Z,0
2017-02-07T00:51:48.545Z,0
2017-02-07T00:52:53.664Z,0
2017-02-07T00:53:58.764Z,0
2017-02-07T00:55:04.855Z,0
2017-02-07T00:56:10.953Z,0
2017-02-07T00:57:15.107Z,0
2017-02-07T00:58:21.278Z,0
2017-02-07T00:59:27.348Z,0
2017-02-07T01:00:33.447Z,0
2017-02-07T01:01:38.584Z,0
2017-02-07T01:02:43.697Z,0
2017-02-07T01:03:49.794Z,0
2017-02-07T01:04:55.885Z,0
2017-02-07T01:06:01.976Z,0
2017-02-07T01:07:06.132Z,0
2017-02-07T01:08:11.266Z,0
2017-02-07T01:09:16.383Z,0
2017-02-07T01:10:22.483Z,0
2017-02-07T01:11:27.601Z,0
2017-02-07T01:12:32.719Z,0
2017-02-07T01:13:37.805Z,0
2017-02-07T01:14:43.894Z,0
2017-02-07T01:15:49.016Z,0
2017-02-07T01:16:55.104Z,0
2017-02-07T01:18:01.201Z,0
2017-02-07T01:19:07.335Z,0
2017-02-07T01:20:11.594Z,0
2017-02-07T01:21:16.714Z,0
2017-02-07T01:22:20.888Z,0
2017-02-07T01:23:26.952Z,0
2017-02-07T01:24:32.049Z,0
2017-02-07T01:25:36.244Z,0
2017-02-07T01:26:42.326Z,0
2017-02-07T01:27:47.448Z,0
2017-02-07T01:28:53.622Z,0
2017-02-07T01:29:59.764Z,0
2017-02-07T01:31:03.872Z,0
2017-02-07T01:32:08.074Z,0
2017-02-07T01:33:13.197Z,0
2017-02-07T01:34:17.354Z,0
2017-02-07T01:35:23.459Z,0
2017-02-07T01:36:29.559Z,0
2017-02-07T01:37:33.732Z,0
2017-02-07T01:38:38.841Z,0
2017-02-07T01:39:42.972Z,0
2017-02-07T01:40:49.062Z,0
2017-02-07T01:41:55.149Z,0
2017-02-07T01:42:59.312Z,0
2017-02-07T01:44:04.435Z,0
2017-02-07T01:45:10.526Z,0
2017-02-07T01:46:15.655Z,0
2017-02-07T01:47:19.805Z,0
2017-02-07T01:48:23.950Z,0
2017-02-07T01:49:30.020Z,0
2017-02-07T01:50:36.134Z,0
2017-02-07T01:51:41.249Z,0
2017-02-07T01:52:46.353Z,0
2017-02-07T01:53:52.448Z,0
2017-02-07T01:54:57.559Z,0
2017-02-07T01:56:02.690Z,0
2017-02-07T01:57:07.804Z,0
2017-02-07T01:58:13.887Z,0
2017-02-07T01:59:19.982Z,0
2017-02-07T02:00:25.192Z,0
2017-02-07T02:01:31.291Z,0
2017-02-07T02:02:35.410Z,0
2017-02-07T02:03:39.575Z,0
2017-02-07T02:04:43.702Z,0
2017-02-07T02:05:47.853Z,0
2017-02-07T02:06:52.015Z,0
2017-02-07T02:07:57.112Z,0
2017-02-07T02:09:03.216Z,0
2017-02-07T02:10:08.347Z,0
2017-02-07T02:11:13.475Z,0
2017-02-07T02:12:18.597Z,0
2017-02-07T02:13:24.696Z,0
2017-02-07T02:14:30.783Z,0
2017-02-07T02:15:36.882Z,0
2017-02-07T02:16:41.979Z,0
2017-02-07T02:17:48.080Z,0
2017-02-07T02:18:54.180Z,0
2017-02-07T02:19:58.368Z,0
2017-02-07T02:21:03.493Z,0
2017-02-07T02:22:08.666Z,0
2017-02-07T02:23:11.850Z,0
2017-02-07T02:24:15.979Z,0
2017-02-07T02:25:22.076Z,0
2017-02-07T02:26:26.231Z,0
2017-02-07T02:27:31.357Z,0
2017-02-07T02:28:35.481Z,0
2017-02-07T02:29:36.706Z,0
2017-02-07T02:30:42.804Z,0
2017-02-07T02:31:48.913Z,0
2017-02-07T02:32:54.989Z,0
2017-02-07T02:34:01.081Z,0
2017-02-07T02:35:06.198Z,0
2017-02-07T02:36:11.328Z,0
2017-02-07T02:37:17.442Z,0
2017-02-07T02:38:22.547Z,0
2017-02-07T02:39:27.673Z,0
2017-02-07T02:40:33.812Z,0
2017-02-07T02:41:38.942Z,0
2017-02-07T02:42:45.035Z,0
2017-02-07T02:43:51.123Z,0
2017-02-07T02:44:56.243Z,0
2017-02-07T02:46:02.341Z,0
2017-02-07T02:47:06.492Z,0
2017-02-07T02:48:10.634Z,0
2017-02-07T02:49:16.730Z,0
2017-02-07T02:50:21.837Z,0
2017-02-07T02:51:26.975Z,0
2017-02-07T02:52:30.118Z,0
2017-02-07T02:53:36.253Z,0
2017-02-07T02:54:39.437Z,0
2017-02-07T02:55:44.533Z,0
2017-02-07T02:56:49.653Z,0
2017-02-07T02:57:54.788Z,0
2017-02-07T02:59:00.883Z,0
2017-02-07T03:00:06.008Z,0
2017-02-07T03:01:10.158Z,0
2017-02-07T03:02:15.281Z,0
2017-02-07T03:03:21.375Z,0
2017-02-07T03:04:27.508Z,0
2017-02-07T03:05:32.606Z,0
2017-02-07T03:06:37.731Z,0
2017-02-07T03:07:43.825Z,0
2017-02-07T03:08:49.923Z,0
2017-02-07T03:09:54.076Z,0
2017-02-07T03:11:00.164Z,0
2017-02-07T03:12:05.318Z,0
2017-02-07T03:13:10.422Z,0
2017-02-07T03:14:16.510Z,0
2017-02-07T03:15:21.640Z,0
2017-02-07T03:16:26.767Z,0
2017-02-07T03:17:31.909Z,0
2017-02-07T03:18:36.075Z,0
2017-02-07T03:19:40.357Z,0
2017-02-07T03:20:45.450Z,0
2017-02-07T03:21:50.557Z,0
2017-02-07T03:22:55.689Z,0
2017-02-07T03:24:00.826Z,0
2017-02-07T03:25:05.951Z,0
2017-02-07T03:26:12.049Z,0
2017-02-07T03:27:18.143Z,0
2017-02-07T03:28:24.292Z,0
2017-02-07T03:29:29.429Z,0
2017-02-07T03:30:34.556Z,0
2017-02-07T03:31:38.717Z,0
2017-02-07T03:32:44.809Z,0
2017-02-07T03:33:48.985Z,0
2017-02-07T03:34:54.078Z,0
2017-02-07T03:36:00.172Z,0
2017-02-07T03:37:06.253Z,0
2017-02-07T03:38:11.384Z,0
2017-02-07T03:39:15.509Z,0
2017-02-07T03:40:19.679Z,0
2017-02-07T03:41:25.750Z,0
2017-02-07T03:42:30.931Z,0
2017-02-07T03:43:36.045Z,0
2017-02-07T03:44:42.117Z,0
2017-02-07T03:45:48.214Z,0
2017-02-07T03:46:54.306Z,0
2017-02-07T03:47:59.426Z,0
2017-02-07T03:49:05.504Z,0
2017-02-07T03:50:10.667Z,0
2017-02-07T03:51:15.778Z,0
2017-02-07T03:52:21.848Z,0
2017-02-07T03:53:26.004Z,0
2017-02-07T03:54:30.159Z,0
2017-02-07T03:55:34.278Z,0
2017-02-07T03:56:40.370Z,0
2017-02-07T03:57:45.545Z,0
2017-02-07T03:58:49.753Z,0
2017-02-07T03:59:54.872Z,0
2017-02-07T04:00:59.993Z,0
2017-02-07T04:02:03.242Z,0
2017-02-07T04:03:09.337Z,0
2017-02-07T04:04:14.487Z,0
2017-02-07T04:05:19.624Z,0
2017-02-07T04:06:23.763Z,0
2017-02-07T04:07:29.863Z,0
2017-02-07T04:08:34.066Z,0
2017-02-07T04:09:40.138Z,0
2017-02-07T04:10:44.288Z,0
2017-02-07T04:11:50.384Z,0
2017-02-07T04:12:55.497Z,0
2017-02-07T04:14:00.664Z,0
2017-02-07T04:15:05.786Z,0
2017-02-07T04:16:10.912Z,0
2017-02-07T04:17:16.999Z,0
2017-02-07T04:18:23.095Z,0
2017-02-07T04:19:28.213Z,0
2017-02-07T04:20:33.348Z,0
2017-02-07T04:21:39.439Z,0
2017-02-07T04:22:45.536Z,0
2017-02-07T04:23:50.665Z,0
2017-02-07T04:24:56.757Z,0
2017-02-07T04:26:01.908Z,0
2017-02-07T04:27:07.995Z,0
2017-02-07T04:28:13.123Z,0
2017-02-07T04:29:15.316Z,0
2017-02-07T04:30:21.401Z,0
2017-02-07T04:31:25.535Z,0
2017-02-07T04:32:30.662Z,0
2017-02-07T04:33:35.762Z,0
2017-02-07T04:34:41.860Z,0
2017-02-07T04:35:45.978Z,0
2017-02-07T04:36:51.102Z,0
2017-02-07T04:37:57.191Z,0
2017-02-07T04:39:02.339Z,0
2017-02-07T04:40:08.478Z,0
2017-02-07T04:41:14.563Z,0
2017-02-07T04:42:20.654Z,0
2017-02-07T04:43:26.757Z,0
2017-02-07T04:44:31.869Z,0
2017-02-07T04:45:35.992Z,0
2017-02-07T04:46:42.079Z,0
2017-02-07T04:47:47.205Z,0
2017-02-07T04:48:52.337Z,0
2017-02-07T04:49:58.429Z,0
2017-02-07T04:51:01.645Z,0
2017-02-07T04:52:06.729Z,0
2017-02-07T04:53:12.816Z,0
2017-02-07T04:54:17.943Z,0
2017-02-07T04:55:22.094Z,0
2017-02-07T04:56:28.251Z,0
2017-02-07T04:57:33.387Z,0
2017-02-07T04:58:36.564Z,0
2017-02-07T04:59:42.653Z,0
2017-02-07T05:00:47.768Z,0
2017-02-07T05:01:52.889Z,0
2017-02-07T05:02:58.069Z,0
2017-02-07T05:04:04.151Z,0
2017-02-07T05:05:10.237Z,0
2017-02-07T05:06:15.374Z,0
2017-02-07T05:07:20.506Z,0
2017-02-07T05:08:26.596Z,0
2017-02-07T05:09:32.752Z,0
2017-02-07T05:10:37.823Z,0
2017-02-07T05:11:43.909Z,0
2017-02-07T05:12:49.031Z,0
2017-02-07T05:13:52.196Z,0
2017-02-07T05:14:57.316Z,0
2017-02-07T05:16:03.400Z,0
2017-02-07T05:17:08.529Z,0
2017-02-07T05:18:14.688Z,0
2017-02-07T05:19:19.807Z,0
2017-02-07T05:20:25.895Z,0
2017-02-07T05:21:32.049Z,0
2017-02-07T05:22:38.124Z,0
2017-02-07T05:23:44.214Z,0
2017-02-07T05:24:49.344Z,0
2017-02-07T05:25:55.434Z,0
2017-02-07T05:27:01.518Z,0
2017-02-07T05:28:06.610Z,0
2017-02-07T05:29:11.714Z,0
2017-02-07T05:30:16.798Z,0
2017-02-07T05:31:21.991Z,0
2017-02-07T05:32:27.068Z,0
2017-02-07T05:33:33.167Z,0
2017-02-07T05:34:39.255Z,0
2017-02-07T05:35:45.393Z,0
2017-02-07T05:36:51.484Z,0
2017-02-07T05:37:57.566Z,0
2017-02-07T05:39:02.662Z,0
2017-02-07T05:40:07.789Z,0
2017-02-07T05:41:13.903Z,0
2017-02-07T05:42:20.000Z,0
2017-02-07T05:43:26.094Z,0
2017-02-07T05:44:32.199Z,0
2017-02-07T05:45:35.379Z,0
2017-02-07T05:46:41.466Z,0
2017-02-07T05:47:46.554Z,0
2017-02-07T05:48:52.685Z,0
2017-02-07T05:49:58.777Z,0
2017-02-07T05:51:03.869Z,0
2017-02-07T05:52:09.985Z,0
2017-02-07T05:53:16.122Z,0
2017-02-07T05:54:22.194Z,0
2017-02-07T05:55:26.349Z,0
2017-02-07T05:56:29.512Z,0
2017-02-07T05:57:34.765Z,0
2017-02-07T05:58:40.816Z,0
2017-02-07T05:59:46.908Z,0
2017-02-07T06:00:53.004Z,0
2017-02-07T06:01:58.139Z,0
2017-02-07T06:03:03.264Z,0
2017-02-07T06:04:08.394Z,0
2017-02-07T06:05:14.491Z,0
2017-02-07T06:06:20.609Z,0
2017-02-07T06:07:26.693Z,0
2017-02-07T06:08:31.812Z,0
2017-02-07T06:09:36.911Z,0
2017-02-07T06:10:43.009Z,0
2017-02-07T06:11:49.094Z,0
2017-02-07T06:12:53.259Z,0
2017-02-07T06:13:59.366Z,0
2017-02-07T06:15:02.535Z,0
2017-02-07T06:16:06.691Z,0
2017-02-07T06:17:12.780Z,0
2017-02-07T06:18:16.937Z,0
2017-02-07T06:19:23.025Z,0
2017-02-07T06:20:29.117Z,0
2017-02-07T06:21:34.233Z,0
2017-02-07T06:22:39.327Z,0
2017-02-07T06:23:44.453Z,0
2017-02-07T06:24:50.549Z,0
2017-02-07T06:25:56.639Z,0
2017-02-07T06:26:59.819Z,0
2017-02-07T06:28:04.944Z,0
2017-02-07T06:29:10.063Z,0
2017-02-07T06:30:14.194Z,0
2017-02-07T06:31:20.294Z,0
2017-02-07T06:32:25.409Z,0
2017-02-07T06:33:31.515Z,0
2017-02-07T06:34:37.596Z,0
2017-02-07T06:35:42.714Z,0
2017-02-07T06:36:48.818Z,0
2017-02-07T06:37:52.946Z,0
2017-02-07T06:38:57.099Z,0
2017-02-07T06:40:03.239Z,0
2017-02-07T06:41:09.333Z,0
2017-02-07T06:42:14.434Z,0
2017-02-07T06:43:20.531Z,0
2017-02-07T06:44:25.650Z,0
2017-02-07T06:45:28.852Z,0
2017-02-07T06:46:33.990Z,0
2017-02-07T06:47:39.120Z,0
2017-02-07T06:48:44.267Z,0
2017-02-07T06:49:49.373Z,0
2017-02-07T06:50:55.446Z,0
2017-02-07T06:52:01.536Z,0
2017-02-07T06:53:06.659Z,0
2017-02-07T06:54:11.787Z,0
2017-02-07T06:55:16.902Z,0
2017-02-07T06:56:22.028Z,0
2017-02-07T06:57:28.130Z,0
2017-02-07T06:58:31.306Z,0
2017-02-07T06:59:34.485Z,0
2017-02-07T07:00:38.614Z,0
2017-02-07T07:01:43.719Z,0
2017-02-07T07:02:48.866Z,5
2017-02-07T07:03:54.942Z,5
2017-02-07T07:04:59.103Z,5
2017-02-07T07:06:03.263Z,5
2017-02-07T07:07:09.355Z,5
2017-02-07T07:08:14.477Z,5
2017-02-07T07:09:20.566Z,5
2017-02-07T07:10:26.662Z,5
2017-02-07T07:11:31.759Z,5
2017-02-07T07:12:36.882Z,5
2017-02-07T07:13:42.001Z,10
2017-02-07T07:14:47.129Z,10
2017-02-07T07:15:52.303Z,10
2017-02-07T07:16:56.461Z,15
2017-02-07T07:18:02.594Z,15
2017-02-07T07:19:07.688Z,15
2017-02-07T07:20:11.822Z,15
2017-02-07T07:21:16.950Z,15
2017-02-07T07:22:22.123Z,15
2017-02-07T07:23:27.232Z,15
2017-02-07T07:24:32.353Z,15
2017-02-07T07:25:37.447Z,20
2017-02-07T07:26:43.541Z,15
2017-02-07T07:27:49.683Z,15
2017-02-07T07:28:54.812Z,20
2017-02-07T07:29:58.964Z,20
2017-02-07T07:31:04.088Z,20
2017-02-07T07:32:10.190Z,20
2017-02-07T07:33:16.279Z,20
2017-02-07T07:34:22.373Z,20
2017-02-07T07:35:26.536Z,20
2017-02-07T07:36:31.647Z,20
2017-02-07T07:37:36.736Z,25
2017-02-07T07:38:42.835Z,25
2017-02-07T07:39:48.923Z,30
2017-02-07T07:40:55.016Z,30
2017-02-07T07:42:00.145Z,30
2017-02-07T07:43:05.246Z,35
2017-02-07T07:44:11.334Z,35
2017-02-07T07:45:15.539Z,40
2017-02-07T07:46:21.701Z,40
2017-02-07T07:47:25.838Z,40
2017-02-07T07:48:31.924Z,45
2017-02-07T07:49:38.017Z,45
2017-02-07T07:50:44.117Z,50
2017-02-07T07:51:49.255Z,45
2017-02-07T07:52:54.386Z,45
2017-02-07T07:54:00.475Z,45
2017-02-07T07:55:06.566Z,40
2017-02-07T07:56:11.695Z,40
2017-02-07T07:57:17.793Z,40
2017-02-07T07:58:23.880Z,40
2017-02-07T07:59:28.048Z,40
2017-02-07T08:00:34.200Z,40
2017-02-07T08:01:40.296Z,45
2017-02-07T08:02:44.421Z,45
2017-02-07T08:03:48.576Z,45
2017-02-07T08:04:54.670Z,45
2017-02-07T08:06:00.761Z,40
2017-02-07T08:07:05.895Z,40
2017-02-07T08:08:11.981Z,40
2017-02-07T08:09:17.120Z,45
2017-02-07T08:10:22.255Z,50
2017-02-07T08:11:25.415Z,55
2017-02-07T08:12:31.501Z,60
2017-02-07T08:13:36.621Z,55
2017-02-07T08:14:42.709Z,65
2017-02-07T08:15:48.803Z,65
2017-02-07T08:16:52.978Z,60
2017-02-07T08:17:59.066Z,65
2017-02-07T08:19:05.163Z,60
2017-02-07T08:20:10.278Z,60
2017-02-07T08:21:15.423Z,60
2017-02-07T08:22:21.493Z,55
2017-02-07T08:23:26.621Z,55
2017-02-07T08:24:31.796Z,55
2017-02-07T08:25:37.881Z,55
2017-02-07T08:26:43.968Z,60
2017-02-07T08:27:49.062Z,60
2017-02-07T08:28:54.191Z,65
2017-02-07T08:29:59.320Z,65
2017-02-07T08:31:04.429Z,70
2017-02-07T08:32:10.526Z,65
2017-02-07T08:33:15.638Z,70
2017-02-07T08:34:21.735Z,75
2017-02-07T08:35:26.892Z,75
2017-02-07T08:36:31.024Z,70
2017-02-07T08:37:36.167Z,75
2017-02-07T08:38:42.306Z,70
2017-02-07T08:39:48.393Z,70
2017-02-07T08:40:53.542Z,70
2017-02-07T08:41:59.647Z,70
2017-02-07T08:43:03.779Z,70
2017-02-07T08:44:07.946Z,70
2017-02-07T08:45:13.044Z,70
2017-02-07T08:46:18.183Z,70
2017-02-07T08:47:23.310Z,80
2017-02-07T08:48:29.405Z,80
2017-02-07T08:49:34.489Z,85
2017-02-07T08:50:40.573Z,90
2017-02-07T08:51:45.691Z,95
2017-02-07T08:52:51.792Z,105
2017-02-07T08:53:55.950Z,120
2017-02-07T08:55:02.043Z,120
2017-02-07T08:56:07.200Z,115
2017-02-07T08:57:11.361Z,105
2017-02-07T08:58:16.478Z,100
2017-02-07T08:59:21.585Z,90
2017-02-07T09:00:26.827Z,85
2017-02-07T09:01:32.923Z,85
2017-02-07T09:02:36.091Z,85
2017-02-07T09:03:40.243Z,85
2017-02-07T09:04:46.342Z,90
2017-02-07T09:05:51.460Z,95
2017-02-07T09:06:57.552Z,100
2017-02-07T09:08:02.678Z,100
2017-02-07T09:09:07.839Z,100
2017-02-07T09:10:12.961Z,90
2017-02-07T09:11:19.038Z,90
2017-02-07T09:12:24.177Z,85
2017-02-07T09:13:29.316Z,90
2017-02-07T09:14:34.465Z,90
2017-02-07T09:15:38.605Z,90
2017-02-07T09:16:41.767Z,90
2017-02-07T09:17:47.919Z,90
2017-02-07T09:18:54.013Z,85
2017-02-07T09:19:59.354Z,85
2017-02-07T09:21:04.489Z,80
2017-02-07T09:22:10.583Z,85
2017-02-07T09:23:15.731Z,85
2017-02-07T09:24:20.855Z,85
2017-02-07T09:25:25.969Z,85
2017-02-07T09:26:31.095Z,90
2017-02-07T09:27:37.184Z,95
2017-02-07T09:28:42.364Z,95
2017-02-07T09:29:47.485Z,100
2017-02-07T09:30:52.606Z,105
2017-02-07T09:31:58.691Z,105
2017-02-07T09:33:04.796Z,110
2017-02-07T09:34:10.898Z,105
2017-02-07T09:35:16.980Z,100
2017-02-07T09:36:22.115Z,95
2017-02-07T09:37:28.199Z,95
2017-02-07T09:38:32.333Z,90
2017-02-07T09:39:37.457Z,90
2017-02-07T09:40:41.616Z,90
2017-02-07T09:41:46.796Z,90
2017-02-07T09:42:50.946Z,95
2017-02-07T09:43:55.121Z,105
2017-02-07T09:45:00.221Z,105
2017-02-07T09:46:05.320Z,110
2017-02-07T09:47:09.479Z,105
2017-02-07T09:48:14.614Z,100
2017-02-07T09:49:19.738Z,95
2017-02-07T09:50:25.840Z,90
2017-02-07T09:51:31.942Z,90
2017-02-07T09:52:38.037Z,90
2017-02-07T09:53:40.233Z,95
2017-02-07T09:54:45.358Z,95
2017-02-07T09:55:51.428Z,95
2017-02-07T09:56:57.527Z,100
2017-02-07T09:58:01.684Z,100
2017-02-07T09:59:07.773Z,100
2017-02-07T10:00:13.875Z,95
2017-02-07T10:01:18.999Z,95
2017-02-07T10:02:24.124Z,90
2017-02-07T10:03:28.282Z,90
2017-02-07T10:04:34.369Z,95
2017-02-07T10:05:40.459Z,95
2017-02-07T10:06:45.588Z,95
2017-02-07T10:07:50.716Z,90
2017-02-07T10:08:56.812Z,85
2017-02-07T10:10:02.929Z,75
2017-02-07T10:11:08.024Z,75
2017-02-07T10:12:14.116Z,65
2017-02-07T10:13:18.247Z,60
2017-02-07T10:14:23.359Z,60
2017-02-07T10:15:27.525Z,60
2017-02-07T10:16:30.690Z,60
2017-02-07T10:17:34.843Z,55
2017-02-07T10:18:40.940Z,60
2017-02-07T10:19:46.059Z,60
2017-02-07T10:20:52.173Z,65
2017-02-07T10:21:56.326Z,65
2017-02-07T10:23:01.483Z,70
2017-02-07T10:24:07.573Z,75
2017-02-07T10:25:12.684Z,75
2017-02-07T10:26:17.821Z,80
2017-02-07T10:27:22.948Z,85
2017-02-07T10:28:29.031Z,85
2017-02-07T10:29:33.156Z,85
2017-02-07T10:30:39.246Z,80
2017-02-07T10:31:44.349Z,75
2017-02-07T10:32:50.462Z,75
2017-02-07T10:33:55.557Z,75
2017-02-07T10:35:01.647Z,80
2017-02-07T10:36:06.776Z,85
2017-02-07T10:37:11.903Z,85
2017-02-07T10:38:17.006Z,90
2017-02-07T10:39:23.100Z,95
2017-02-07T10:40:28.221Z,100
2017-02-07T10:41:32.381Z,105
2017-02-07T10:42:37.505Z,105
2017-02-07T10:43:43.588Z,105
2017-02-07T10:44:49.677Z,105
2017-02-07T10:45:55.770Z,100
2017-02-07T10:47:00.969Z,95
2017-02-07T10:48:07.056Z,85
2017-02-07T10:49:13.144Z,80
2017-02-07T10:50:19.237Z,75
2017-02-07T10:51:23.408Z,70
2017-02-07T10:52:29.495Z,70
2017-02-07T10:53:34.677Z,75
2017-02-07T10:54:39.804Z,75
2017-02-07T10:55:46.006Z,75
2017-02-07T10:56:50.222Z,80
2017-02-07T10:57:55.340Z,85
2017-02-07T10:59:00.467Z,85
2017-02-07T11:00:05.585Z,85
2017-02-07T11:01:10.766Z,80
2017-02-07T11:02:13.926Z,75
2017-02-07T11:03:20.021Z,75
2017-02-07T11:04:26.115Z,75
2017-02-07T11:05:32.208Z,75
2017-02-07T11:06:35.390Z,75
2017-02-07T11:07:41.492Z,75
2017-02-07T11:08:44.653Z,80
2017-02-07T11:09:50.752Z,80
2017-02-07T11:10:56.840Z,80
2017-02-07T11:12:01.957Z,80
2017-02-07T11:13:06.112Z,80
2017-02-07T11:14:11.235Z,85
2017-02-07T11:15:17.328Z,90
2017-02-07T11:16:23.425Z,90
2017-02-07T11:17:28.577Z,95
2017-02-07T11:18:33.665Z,95
2017-02-07T11:19:37.784Z,95
2017-02-07T11:20:43.880Z,95
2017-02-07T11:21:49.005Z,95
2017-02-07T11:22:53.130Z,90
2017-02-07T11:23:58.245Z,95
2017-02-07T11:25:02.388Z,95
2017-02-07T11:26:08.477Z,95
2017-02-07T11:27:13.611Z,100
2017-02-07T11:28:18.711Z,100
2017-02-07T11:29:23.855Z,105
2017-02-07T11:30:28.033Z,100
2017-02-07T11:31:33.143Z,100
2017-02-07T11:32:39.241Z,95
2017-02-07T11:33:44.380Z,95
2017-02-07T11:34:49.502Z,100
2017-02-07T11:35:55.618Z,100
2017-02-07T11:37:01.697Z,100
2017-02-07T11:38:04.882Z,95
2017-02-07T11:39:09.043Z,90
2017-02-07T11:40:13.166Z,85
2017-02-07T11:41:19.259Z,80
2017-02-07T11:42:24.372Z,80
2017-02-07T11:43:29.474Z,80
2017-02-07T11:44:34.601Z,80
2017-02-07T11:45:39.747Z,80
2017-02-07T11:46:45.835Z,80
2017-02-07T11:47:50.961Z,85
2017-02-07T11:48:57.088Z,80
2017-02-07T11:50:03.173Z,85
2017-02-07T11:51:06.362Z,85
2017-02-07T11:52:11.484Z,90
2017-02-07T11:53:17.576Z,85
2017-02-07T11:54:23.673Z,85
2017-02-07T11:55:28.822Z,80
2017-02-07T11:56:33.950Z,75
2017-02-07T11:57:40.043Z,80
2017-02-07T11:58:45.164Z,80
2017-02-07T11:59:50.313Z,85
2017-02-07T12:00:55.419Z,90
2017-02-07T12:02:00.531Z,90
2017-02-07T12:03:05.648Z,95
2017-02-07T12:04:10.769Z,95
2017-02-07T12:05:16.875Z,95
2017-02-07T12:06:22.957Z,90
2017-02-07T12:07:27.099Z,85
2017-02-07T12:08:32.233Z,80
2017-02-07T12:09:38.362Z,80
2017-02-07T12:10:44.429Z,80
2017-02-07T12:11:50.539Z,75
2017-02-07T12:12:54.674Z,70
2017-02-07T12:13:59.789Z,65
2017-02-07T12:15:02.943Z,60
2017-02-07T12:16:09.040Z,60
2017-02-07T12:17:15.134Z,60
2017-02-07T12:18:20.258Z,55
2017-02-07T12:19:23.425Z,55
2017-02-07T12:20:29.521Z,60
2017-02-07T12:21:33.703Z,60
2017-02-07T12:22:39.803Z,60
2017-02-07T12:23:44.938Z,65
2017-02-07T12:24:51.027Z,65
2017-02-07T12:25:57.120Z,65
2017-02-07T12:27:03.210Z,65
2017-02-07T12:28:07.424Z,65
2017-02-07T12:29:13.512Z,70
2017-02-07T12:30:18.646Z,75
2017-02-07T12:31:23.746Z,75
2017-02-07T12:32:29.840Z,75
2017-02-07T12:33:33.965Z,75
2017-02-07T12:34:39.083Z,75
2017-02-07T12:35:45.178Z,75
2017-02-07T12:36:50.312Z,75
2017-02-07T12:37:56.428Z,70
2017-02-07T12:39:01.511Z,70
2017-02-07T12:40:07.609Z,70
2017-02-07T12:41:11.743Z,70
2017-02-07T12:42:15.903Z,75
2017-02-07T12:43:21.045Z,70
2017-02-07T12:44:26.149Z,65
2017-02-07T12:45:31.272Z,65
2017-02-07T12:46:37.366Z,60
2017-02-07T12:47:43.460Z,60
2017-02-07T12:48:49.606Z,55
2017-02-07T12:49:53.727Z,55
2017-02-07T12:50:58.854Z,50
2017-02-07T12:52:04.947Z,50
2017-02-07T12:53:11.051Z,50
2017-02-07T12:54:16.171Z,50
2017-02-07T12:55:21.290Z,50
2017-02-07T12:56:27.408Z,60
2017-02-07T12:57:32.542Z,60
2017-02-07T12:58:38.630Z,65
2017-02-07T12:59:42.790Z,65
2017-02-07T13:00:46.963Z,65
2017-02-07T13:01:52.064Z,65
2017-02-07T13:02:57.201Z,60
2017-02-07T13:04:03.310Z,60
2017-02-07T13:05:09.385Z,55
2017-02-07T13:06:15.479Z,60
2017-02-07T13:07:20.583Z,60
2017-02-07T13:08:26.683Z,60
2017-02-07T13:09:31.803Z,55
2017-02-07T13:10:35.928Z,55
2017-02-07T13:11:41.041Z,55
2017-02-07T13:12:47.119Z,55
2017-02-07T13:13:53.220Z,55
2017-02-07T13:14:58.348Z,55
2017-02-07T13:16:04.434Z,55
2017-02-07T13:17:10.535Z,55
2017-02-07T13:18:15.662Z,50
2017-02-07T13:19:20.796Z,60
2017-02-07T13:20:26.891Z,60
2017-02-07T13:21:32.014Z,60
2017-02-07T13:22:37.138Z,55
2017-02-07T13:23:43.229Z,55
2017-02-07T13:24:48.366Z,60
2017-02-07T13:25:54.468Z,60
2017-02-07T13:26:59.580Z,60
2017-02-07T13:28:03.726Z,55
2017-02-07T13:29:09.867Z,60
2017-02-07T13:30:14.961Z,55
2017-02-07T13:31:20.081Z,55
2017-02-07T13:32:26.172Z,60
2017-02-07T13:33:32.271Z,55
2017-02-07T13:34:38.419Z,55
2017-02-07T13:35:43.524Z,55
2017-02-07T13:36:48.647Z,60
2017-02-07T13:37:53.771Z,65
2017-02-07T13:38:57.896Z,65
2017-02-07T13:40:03.998Z,70
2017-02-07T13:41:10.105Z,60
2017-02-07T13:42:16.201Z,60
2017-02-07T13:43:21.326Z,65
2017-02-07T13:44:27.464Z,70
2017-02-07T13:45:33.555Z,70
2017-02-07T13:46:37.713Z,70
2017-02-07T13:47:42.842Z,65
2017-02-07T13:48:46.980Z,55
2017-02-07T13:49:52.101Z,65
2017-02-07T13:50:57.234Z,65
2017-02-07T13:52:03.326Z,70
2017-02-07T13:53:08.456Z,65
2017-02-07T13:54:13.563Z,65
2017-02-07T13:55:19.653Z,65
2017-02-07T13:56:25.747Z,65
2017-02-07T13:57:29.906Z,65
2017-02-07T13:58:35.022Z,70
2017-02-07T13:59:40.149Z,65
2017-02-07T14:00:44.281Z,65
2017-02-07T14:01:50.380Z,55
2017-02-07T14:02:56.472Z,55
2017-02-07T14:04:01.580Z,55
2017-02-07T14:05:07.668Z,50
2017-02-07T14:06:13.760Z,55
2017-02-07T14:07:18.884Z,55
2017-02-07T14:08:25.010Z,60
2017-02-07T14:09:31.076Z,60
2017-02-07T14:10:36.285Z,55
2017-02-07T14:11:41.415Z,55
2017-02-07T14:12:45.540Z,55
2017-02-07T14:13:50.667Z,55
2017-02-07T14:14:55.792Z,55
2017-02-07T14:16:01.887Z,55
2017-02-07T14:17:07.047Z,55
2017-02-07T14:18:12.151Z,60
2017-02-07T14:19:18.245Z,60
2017-02-07T14:20:22.418Z,60
2017-02-07T14:21:28.512Z,60
2017-02-07T14:22:34.612Z,55
2017-02-07T14:23:39.745Z,50
2017-02-07T14:24:44.879Z,55
2017-02-07T14:26:56.070Z,55
2017-02-07T14:28:02.164Z,55
2017-02-07T14:29:08.255Z,55
2017-02-07T14:30:11.445Z,50
2017-02-07T14:31:16.573Z,50
2017-02-07T14:32:21.696Z,50
2017-02-07T14:33:25.845Z,50
2017-02-07T14:34:30.005Z,50
2017-02-07T14:35:35.127Z,50
2017-02-07T14:36:39.253Z,55
2017-02-07T14:37:44.379Z,60
2017-02-07T14:38:50.481Z,60
2017-02-07T14:39:56.568Z,60
2017-02-07T14:41:01.716Z,65
2017-02-07T14:42:04.905Z,60
2017-02-07T14:43:11.003Z,60
2017-02-07T14:44:15.132Z,65
2017-02-07T14:45:19.264Z,55
2017-02-07T14:46:24.375Z,55
2017-02-07T14:47:30.471Z,50
2017-02-07T14:48:35.602Z,45
2017-02-07T14:49:41.695Z,45
2017-02-07T14:50:47.772Z,50
2017-02-07T14:51:52.864Z,45
2017-02-07T14:52:56.039Z,45
2017-02-07T14:54:02.154Z,50
2017-02-07T14:55:08.249Z,45
2017-02-07T14:56:13.380Z,45
2017-02-07T14:57:18.469Z,40
2017-02-07T14:58:24.565Z,40
2017-02-07T14:59:29.722Z,40
2017-02-07T15:00:33.855Z,35
2017-02-07T15:01:40.045Z,35
2017-02-07T15:02:46.135Z,35
2017-02-07T15:03:51.231Z,35
2017-02-07T15:04:56.363Z,30
2017-02-07T15:06:01.482Z,30
2017-02-07T15:07:07.573Z,35
2017-02-07T15:08:12.689Z,30
2017-02-07T15:09:18.776Z,35
2017-02-07T15:10:24.881Z,35
2017-02-07T15:11:30.011Z,35
2017-02-07T15:12:36.098Z,35
2017-02-07T15:13:40.237Z,30
2017-02-07T15:14:45.365Z,30
2017-02-07T15:15:50.484Z,30
2017-02-07T15:16:56.573Z,30
2017-02-07T15:18:01.700Z,30
2017-02-07T15:19:05.834Z,35
2017-02-07T15:20:11.070Z,35
2017-02-07T15:21:17.160Z,35
2017-02-07T15:22:22.262Z,35
2017-02-07T15:23:27.440Z,35
2017-02-07T15:24:32.558Z,35
2017-02-07T15:25:35.720Z,35
2017-02-07T15:26:41.811Z,35
2017-02-07T15:27:45.975Z,30
2017-02-07T15:28:52.066Z,30
2017-02-07T15:29:57.188Z,30
2017-02-07T15:31:03.280Z,30
2017-02-07T15:32:09.372Z,25
2017-02-07T15:33:14.472Z,30
2017-02-07T15:34:19.595Z,30
2017-02-07T15:35:23.801Z,30
2017-02-07T15:36:27.940Z,30
2017-02-07T15:37:34.051Z,25
2017-02-07T15:38:40.119Z,20
2017-02-07T15:39:45.262Z,20
2017-02-07T15:40:51.335Z,20
2017-02-07T15:41:55.501Z,20
2017-02-07T15:43:01.586Z,15
2017-02-07T15:44:06.717Z,15
2017-02-07T15:45:11.843Z,15
2017-02-07T15:46:16.962Z,15